Time;durP1;ratioP1;P1;durP2;ratioP2;P2;SDS_P1;SDS_P2;PMS_P1;PMS_P2;Temp;Humidity;BMP_temperature;BMP_pressure;BME280_temperature;BME280_humidity;BME280_pressure;Samples;Min_cycle;Max_cycle;Signal;HPM_P1;HPM_P2
2022/04/04 00:00:19;;;;;;;6.82;3.72;;;;;;;;;;5074686;28;20498;-71
2022/04/04 00:02:45;;;;;;;6.28;3.50;;;;;;;;;;5076062;28;20382;-72
2022/04/04 00:05:11;;;;;;;5.70;4.03;;;;;;;;;;5086739;28;20028;-71
2022/04/04 00:07:37;;;;;;;8.40;3.80;;;;;;;;;;5082739;28;20871;-72
2022/04/04 00:10:04;;;;;;;5.25;3.53;;;;;;;;;;5078429;28;20032;-72
2022/04/04 00:12:30;;;;;;;5.95;3.38;;;;;;;;;;5072212;28;20048;-72
2022/04/04 00:14:55;;;;;;;12.20;3.90;;;;;;;;;;5069404;28;20419;-72
2022/04/04 00:17:22;;;;;;;6.80;3.92;;;;;;;;;;5079410;28;20024;-72
2022/04/04 00:19:48;;;;;;;8.82;3.47;;;;;;;;;;5071653;28;20459;-72
2022/04/04 00:22:13;;;;;;;3.83;3.25;;;;;;;;;;5080838;28;20077;-73
2022/04/04 00:24:39;;;;;;;5.32;3.47;;;;;;;;;;5084968;28;20033;-71
2022/04/04 00:27:05;;;;;;;4.40;3.50;;;;;;;;;;5076354;28;20021;-72
2022/04/04 00:29:31;;;;;;;5.32;3.33;;;;;;;;;;5079932;28;20040;-72
2022/04/04 00:31:57;;;;;;;9.55;3.42;;;;;;;;;;5076390;28;20509;-72
2022/04/04 00:34:23;;;;;;;8.43;3.95;;;;;;;;;;5082211;28;20028;-72
2022/04/04 00:36:49;;;;;;;6.55;3.83;;;;;;;;;;5074537;28;20021;-72
2022/04/04 00:39:19;;;;;;;5.97;3.65;;;;;;;;;;5075354;28;20498;-72
2022/04/04 00:41:46;;;;;;;4.72;3.67;;;;;;;;;;5079889;28;20032;-72
2022/04/04 00:44:12;;;;;;;7.50;3.78;;;;;;;;;;5080932;28;20038;-72
2022/04/04 00:46:42;;;;;;;8.23;4.10;;;;;;;;;;5071410;28;20394;-72
2022/04/04 00:49:08;;;;;;;4.97;3.53;;;;;;;;;;5074129;28;20574;-72
2022/04/04 00:51:34;;;;;;;5.82;4.10;;;;;;;;;;5078732;28;20028;-72
2022/04/04 00:54:00;;;;;;;5.45;3.95;;;;;;;;;;5084009;28;20021;-71
2022/04/04 00:56:27;;;;;;;8.45;3.72;;;;;;;;;;5075014;28;20428;-72
2022/04/04 00:58:53;;;;;;;5.45;4.18;;;;;;;;;;5081486;28;20040;-73
2022/04/04 01:01:21;;;;;;;4.32;3.70;;;;;;;;;;5077469;28;20066;-73
2022/04/04 01:03:47;;;;;;;6.50;4.22;;;;;;;;;;5075640;28;20077;-71
2022/04/04 01:06:13;;;;;;;6.47;4.15;;;;;;;;;;5083558;28;20024;-72
2022/04/04 01:08:39;;;;;;;6.28;4.20;;;;;;;;;;5082574;28;20024;-72
2022/04/04 01:11:05;;;;;;;5.97;4.30;;;;;;;;;;5083982;28;20093;-72
2022/04/04 01:13:31;;;;;;;5.85;3.78;;;;;;;;;;5076597;28;20048;-72
2022/04/04 01:15:57;;;;;;;6.72;4.60;;;;;;;;;;5075363;28;20024;-72
2022/04/04 01:18:23;;;;;;;12.20;5.25;;;;;;;;;;5082522;28;20047;-72
2022/04/04 01:20:50;;;;;;;7.65;4.32;;;;;;;;;;5082734;28;20107;-72
2022/04/04 01:23:21;;;;;;;6.25;4.53;;;;;;;;;;5083088;28;20033;-72
2022/04/04 01:25:47;;;;;;;;;;;;;;;;;;5078795;28;20039;-72
2022/04/04 01:28:13;;;;;;;7.93;4.95;;;;;;;;;;5077764;28;19908;-72
2022/04/04 01:30:39;;;;;;;8.60;4.85;;;;;;;;;;5084084;28;20028;-72
2022/04/04 01:33:05;;;;;;;11.57;4.70;;;;;;;;;;5083171;28;20058;-72
2022/04/04 01:35:31;;;;;;;6.82;4.82;;;;;;;;;;5083612;28;20024;-71
2022/04/04 01:37:57;;;;;;;7.40;5.10;;;;;;;;;;5077281;28;20020;-71
2022/04/04 01:40:23;;;;;;;7.57;5.07;;;;;;;;;;5081550;28;20031;-71
2022/04/04 01:42:50;;;;;;;6.75;4.80;;;;;;;;;;5078414;28;20492;-70
2022/04/04 01:45:16;;;;;;;9.23;4.88;;;;;;;;;;5084445;28;20032;-70
2022/04/04 01:47:42;;;;;;;8.93;5.10;;;;;;;;;;5084703;28;20024;-71
2022/04/04 01:50:09;;;;;;;6.78;5.03;;;;;;;;;;5081290;28;20033;-71
2022/04/04 01:52:35;;;;;;;9.93;5.93;;;;;;;;;;5079803;28;20109;-71
2022/04/04 01:55:01;;;;;;;6.72;5.10;;;;;;;;;;5079807;28;20048;-70
2022/04/04 01:57:27;;;;;;;7.28;5.43;;;;;;;;;;5085726;28;20467;-71
2022/04/04 01:59:52;;;;;;;7.85;5.40;;;;;;;;;;5084016;28;20119;-71
2022/04/04 02:02:18;;;;;;;8.55;5.35;;;;;;;;;;5077900;28;20032;-70
2022/04/04 02:04:44;;;;;;;8.50;5.30;;;;;;;;;;5077003;28;20048;-70
2022/04/04 02:07:10;;;;;;;11.18;5.22;;;;;;;;;;5076598;28;20021;-70
2022/04/04 02:09:36;;;;;;;7.57;5.50;;;;;;;;;;5078738;28;20028;-70
2022/04/04 02:12:04;;;;;;;8.98;5.30;;;;;;;;;;5073423;28;20084;-71
2022/04/04 02:14:30;;;;;;;8.93;4.95;;;;;;;;;;5080211;28;20031;-70
2022/04/04 02:16:56;;;;;;;10.02;5.43;;;;;;;;;;5081497;28;20032;-70
2022/04/04 02:19:22;;;;;;;7.70;5.50;;;;;;;;;;5079461;28;20119;-71
2022/04/04 02:21:48;;;;;;;8.35;5.85;;;;;;;;;;5083743;28;20027;-69
2022/04/04 02:24:14;;;;;;;8.23;5.95;;;;;;;;;;5081277;28;20699;-70
2022/04/04 02:26:40;;;;;;;9.75;5.38;;;;;;;;;;5081426;28;20479;-69
2022/04/04 02:29:06;;;;;;;9.23;5.50;;;;;;;;;;5073649;28;20494;-70
2022/04/04 02:31:32;;;;;;;11.07;6.10;;;;;;;;;;5076181;28;20642;-69
2022/04/04 02:33:58;;;;;;;8.95;5.70;;;;;;;;;;5078467;28;20027;-70
2022/04/04 02:36:23;;;;;;;9.55;5.85;;;;;;;;;;5075449;28;20031;-70
2022/04/04 02:38:50;;;;;;;9.85;5.50;;;;;;;;;;5079555;28;20052;-70
2022/04/04 02:41:16;;;;;;;9.73;5.70;;;;;;;;;;5084470;28;20039;-70
2022/04/04 02:43:42;;;;;;;9.65;5.75;;;;;;;;;;5070559;28;20113;-70
2022/04/04 02:46:11;;;;;;;9.10;6.00;;;;;;;;;;5079695;28;20057;-70
2022/04/04 02:48:37;;;;;;;7.35;5.60;;;;;;;;;;5077768;28;20028;-71
2022/04/04 02:51:03;;;;;;;9.80;5.65;;;;;;;;;;5073654;28;20063;-70
2022/04/04 02:53:28;;;;;;;9.95;6.00;;;;;;;;;;5074562;28;20040;-70
2022/04/04 02:58:39;;;;;;;9.00;6.25;;;;;;;;;;5081758;28;20032;-70
2022/04/04 03:01:05;;;;;;;9.82;6.15;;;;;;;;;;5073785;28;20033;-70
2022/04/04 03:03:31;;;;;;;12.20;6.50;;;;;;;;;;5088494;28;20394;-70
2022/04/04 03:05:57;;;;;;;10.57;6.57;;;;;;;;;;5081532;28;20020;-69
2022/04/04 03:08:23;;;;;;;10.60;6.68;;;;;;;;;;5079411;28;20028;-70
2022/04/04 03:10:49;;;;;;;8.75;6.20;;;;;;;;;;5073312;28;20429;-70
2022/04/04 03:13:15;;;;;;;11.82;6.82;;;;;;;;;;5081051;28;20109;-70
2022/04/04 03:15:41;;;;;;;11.60;6.30;;;;;;;;;;5076055;28;20028;-70
2022/04/04 03:18:07;;;;;;;10.10;6.28;;;;;;;;;;5077465;28;20028;-71
2022/04/04 03:20:33;;;;;;;11.05;6.45;;;;;;;;;;5076694;28;20039;-70
2022/04/04 03:23:00;;;;;;;10.02;6.40;;;;;;;;;;5079738;28;20024;-70
2022/04/04 03:25:26;;;;;;;9.63;6.75;;;;;;;;;;5082166;28;20525;-70
2022/04/04 03:27:53;;;;;;;9.02;6.90;;;;;;;;;;5074413;28;20032;-70
2022/04/04 03:30:21;;;;;;;10.05;6.80;;;;;;;;;;5085976;28;20155;-71
2022/04/04 03:32:47;;;;;;;13.48;6.53;;;;;;;;;;5078652;28;20021;-70
2022/04/04 03:35:17;;;;;;;11.00;6.97;;;;;;;;;;5087974;28;20016;-70
2022/04/04 03:37:44;;;;;;;11.93;7.45;;;;;;;;;;5070405;28;20036;-70
2022/04/04 03:40:13;;;;;;;9.07;6.90;;;;;;;;;;5072093;28;20032;-70
2022/04/04 03:42:40;;;;;;;13.38;7.60;;;;;;;;;;5080472;28;20048;-71
2022/04/04 03:45:06;;;;;;;11.27;6.88;;;;;;;;;;5079080;28;20078;-70
2022/04/04 03:47:32;;;;;;;10.52;6.80;;;;;;;;;;5071789;28;20032;-69
2022/04/04 03:49:59;;;;;;;8.57;6.05;;;;;;;;;;5078085;28;20028;-70
2022/04/04 03:52:25;;;;;;;9.70;6.40;;;;;;;;;;5078911;28;20040;-69
2022/04/04 03:54:51;;;;;;;11.25;7.53;;;;;;;;;;5081621;28;20020;-70
2022/04/04 03:57:17;;;;;;;10.60;6.82;;;;;;;;;;5081279;28;20497;-70
2022/04/04 03:59:43;;;;;;;10.52;6.90;;;;;;;;;;5072407;28;20146;-70
2022/04/04 04:02:09;;;;;;;10.65;6.75;;;;;;;;;;5079004;28;20024;-70
2022/04/04 04:04:35;;;;;;;9.77;7.07;;;;;;;;;;5080981;28;20032;-70
2022/04/04 04:07:01;;;;;;;10.20;6.55;;;;;;;;;;5074568;28;20077;-70
2022/04/04 04:09:27;;;;;;;9.60;7.18;;;;;;;;;;5078631;28;20024;-69
2022/04/04 04:11:54;;;;;;;11.13;6.80;;;;;;;;;;5075733;28;20130;-69
2022/04/04 04:14:21;;;;;;;9.70;6.75;;;;;;;;;;5076267;28;20492;-70
2022/04/04 04:16:46;;;;;;;9.27;6.10;;;;;;;;;;5086626;28;20016;-69
2022/04/04 04:20:19;;;;;;;9.82;7.13;;;;;;;;;;5076942;28;20029;-69
2022/04/04 04:21:58;;;;;;;9.10;6.57;;;;;;;;;;5079226;28;20024;-70
2022/04/04 04:24:24;;;;;;;10.02;6.55;;;;;;;;;;5078607;28;20021;-69
2022/04/04 04:26:50;;;;;;;9.25;6.45;;;;;;;;;;5083865;28;20024;-70
2022/04/04 04:29:16;;;;;;;10.52;6.40;;;;;;;;;;5090693;28;20032;-70
2022/04/04 04:31:42;;;;;;;11.68;6.55;;;;;;;;;;5080536;28;20036;-70
2022/04/04 04:34:08;;;;;;;14.70;7.43;;;;;;;;;;5083247;28;20030;-71
2022/04/04 04:36:36;;;;;;;12.35;7.05;;;;;;;;;;5084156;28;20024;-69
2022/04/04 04:39:02;;;;;;;14.60;6.97;;;;;;;;;;5078042;28;20616;-70
2022/04/04 04:41:28;;;;;;;11.90;6.63;;;;;;;;;;5087529;28;20467;-70
2022/04/04 04:43:54;;;;;;;11.05;7.25;;;;;;;;;;5085049;28;20030;-69
2022/04/04 04:46:20;;;;;;;8.93;6.35;;;;;;;;;;5084219;28;20093;-69
2022/04/04 04:48:46;;;;;;;10.57;6.53;;;;;;;;;;5080673;28;20528;-70
2022/04/04 04:51:12;;;;;;;11.82;6.78;;;;;;;;;;5078715;28;20020;-70
2022/04/04 04:53:38;;;;;;;11.18;6.47;;;;;;;;;;5076474;28;20427;-70
2022/04/04 04:56:04;;;;;;;8.40;6.63;;;;;;;;;;5084584;28;20098;-69
2022/04/04 04:58:30;;;;;;;8.93;6.22;;;;;;;;;;5084136;28;20475;-70
2022/04/04 05:00:56;;;;;;;9.68;6.43;;;;;;;;;;5081052;28;20024;-71
2022/04/04 05:03:25;;;;;;;10.38;6.22;;;;;;;;;;5077436;28;20898;-71
2022/04/04 05:05:51;;;;;;;7.10;5.97;;;;;;;;;;5081857;28;20537;-71
2022/04/04 05:08:17;;;;;;;12.20;5.80;;;;;;;;;;5085271;28;20035;-71
2022/04/04 05:10:43;;;;;;;9.13;5.85;;;;;;;;;;5079771;28;20066;-71
2022/04/04 05:13:09;;;;;;;10.85;6.57;;;;;;;;;;5083252;28;20439;-71
2022/04/04 05:15:35;;;;;;;10.50;6.45;;;;;;;;;;5075187;28;20032;-71
2022/04/04 05:18:01;;;;;;;8.65;6.22;;;;;;;;;;5084439;28;20096;-72
2022/04/04 05:20:28;;;;;;;9.52;6.10;;;;;;;;;;5084989;28;20071;-71
2022/04/04 05:22:54;;;;;;;7.97;6.13;;;;;;;;;;5076527;28;20395;-71
2022/04/04 05:25:20;;;;;;;9.25;5.97;;;;;;;;;;5091273;28;20028;-71
2022/04/04 05:27:46;;;;;;;7.22;5.50;;;;;;;;;;5078598;28;20093;-71
2022/04/04 05:30:12;;;;;;;10.75;5.70;;;;;;;;;;5083781;28;20561;-70
2022/04/04 05:32:38;;;;;;;10.23;6.15;;;;;;;;;;5080101;28;20463;-70
2022/04/04 05:35:08;;;;;;;7.00;5.57;;;;;;;;;;5081998;28;20028;-72
2022/04/04 05:37:34;;;;;;;7.68;6.05;;;;;;;;;;5084587;28;20012;-71
2022/04/04 05:40:00;;;;;;;10.32;6.55;;;;;;;;;;5075675;28;20424;-71
2022/04/04 05:42:26;;;;;;;7.13;5.82;;;;;;;;;;5086012;28;20059;-70
2022/04/04 05:44:52;;;;;;;9.40;6.28;;;;;;;;;;5079633;28;20674;-69
2022/04/04 05:47:20;;;;;;;12.50;6.90;;;;;;;;;;5082911;28;20028;-73
2022/04/04 05:49:46;;;;;;;7.78;6.25;;;;;;;;;;5083654;28;20024;-72
2022/04/04 05:52:11;;;;;;;8.10;6.18;;;;;;;;;;5084328;28;20058;-72
2022/04/04 05:54:53;;;;;;;10.40;6.63;;;;;;;;;;5075449;28;20035;-71
2022/04/04 05:57:19;;;;;;;9.55;5.85;;;;;;;;;;5084026;28;20048;-72
2022/04/04 05:59:45;;;;;;;8.10;5.70;;;;;;;;;;5077536;28;20033;-70
2022/04/04 06:02:13;;;;;;;9.68;6.10;;;;;;;;;;5074814;28;20028;-75
2022/04/04 06:04:38;;;;;;;8.60;6.03;;;;;;;;;;5079949;28;20449;-74
2022/04/04 06:07:05;;;;;;;8.73;5.97;;;;;;;;;;5076874;28;20052;-70
2022/04/04 06:09:30;;;;;;;8.43;6.18;;;;;;;;;;5073716;28;20054;-72
2022/04/04 06:11:56;;;;;;;10.98;7.40;;;;;;;;;;5081187;28;20040;-72
2022/04/04 06:14:23;;;;;;;9.30;5.85;;;;;;;;;;5085055;28;20042;-70
2022/04/04 06:16:48;;;;;;;11.65;6.07;;;;;;;;;;5080562;28;20027;-79
2022/04/04 06:19:14;;;;;;;8.60;6.55;;;;;;;;;;5078490;28;20103;-71
2022/04/04 06:21:40;;;;;;;10.68;6.55;;;;;;;;;;5090778;28;20081;-73
2022/04/04 06:24:06;;;;;;;11.55;6.55;;;;;;;;;;5079006;28;20061;-73
2022/04/04 06:26:32;;;;;;;12.23;6.85;;;;;;;;;;5077006;28;20067;-73
2022/04/04 06:28:58;;;;;;;9.45;6.75;;;;;;;;;;5083078;28;20036;-72
2022/04/04 06:31:24;;;;;;;9.90;7.80;;;;;;;;;;5082997;28;20016;-72
2022/04/04 06:33:50;;;;;;;9.30;7.32;;;;;;;;;;5071928;28;20551;-74
2022/04/04 06:36:16;;;;;;;11.43;7.82;;;;;;;;;;5075880;28;20239;-73
2022/04/04 06:38:42;;;;;;;9.95;7.07;;;;;;;;;;5082762;28;20070;-73
2022/04/04 06:41:08;;;;;;;10.85;7.10;;;;;;;;;;5086417;28;20039;-73
2022/04/04 06:43:34;;;;;;;27.50;8.68;;;;;;;;;;5070870;28;20028;-73
2022/04/04 06:46:02;;;;;;;10.07;7.55;;;;;;;;;;5086598;28;20024;-72
2022/04/04 06:48:30;;;;;;;10.73;8.00;;;;;;;;;;5081302;28;20077;-72
2022/04/04 06:50:59;;;;;;;11.93;7.75;;;;;;;;;;5074867;28;20033;-72
2022/04/04 06:53:25;;;;;;;11.48;8.10;;;;;;;;;;5074838;28;20028;-69
2022/04/04 06:55:50;;;;;;;12.75;8.88;;;;;;;;;;5073886;28;20031;-70
2022/04/04 06:58:17;;;;;;;14.25;7.90;;;;;;;;;;5073747;28;20493;-71
2022/04/04 07:00:44;;;;;;;11.32;8.40;;;;;;;;;;5070150;28;20082;-67
2022/04/04 07:03:10;;;;;;;11.25;7.78;;;;;;;;;;5076127;28;20045;-70
2022/04/04 07:05:37;;;;;;;12.45;8.23;;;;;;;;;;5074219;28;20244;-68
2022/04/04 07:08:03;;;;;;;11.00;8.55;;;;;;;;;;5074561;28;20394;-69
2022/04/04 07:10:29;;;;;;;11.75;7.97;;;;;;;;;;5075517;28;20036;-69
2022/04/04 07:12:55;;;;;;;11.30;8.35;;;;;;;;;;5073700;28;20058;-68
2022/04/04 07:15:20;;;;;;;10.63;8.52;;;;;;;;;;5072070;28;20060;-71
2022/04/04 07:17:46;;;;;;;10.50;8.23;;;;;;;;;;5074609;28;20043;-70
2022/04/04 07:20:13;;;;;;;15.00;8.13;;;;;;;;;;5075674;28;20185;-71
2022/04/04 07:22:39;;;;;;;12.20;8.43;;;;;;;;;;5075634;28;20020;-70
2022/04/04 07:25:07;;;;;;;16.88;9.30;;;;;;;;;;5070896;28;20032;-75
2022/04/04 07:27:33;;;;;;;11.57;8.93;;;;;;;;;;5076689;28;20108;-75
2022/04/04 07:29:59;;;;;;;13.90;10.13;;;;;;;;;;5073670;28;20028;-75
2022/04/04 07:32:25;;;;;;;14.13;9.68;;;;;;;;;;5075533;28;20107;-74
2022/04/04 07:34:51;;;;;;;13.80;8.98;;;;;;;;;;5075237;28;20166;-75
2022/04/04 07:37:17;;;;;;;13.43;9.93;;;;;;;;;;5074142;28;20044;-74
2022/04/04 07:39:43;;;;;;;12.73;9.40;;;;;;;;;;5077162;28;20028;-74
2022/04/04 07:42:10;;;;;;;13.00;9.63;;;;;;;;;;5075622;28;21584;-73
2022/04/04 07:44:39;;;;;;;13.38;9.35;;;;;;;;;;5074097;28;20055;-73
2022/04/04 07:47:05;;;;;;;14.50;9.30;;;;;;;;;;5075803;28;20027;-73
2022/04/04 07:49:31;;;;;;;12.30;9.15;;;;;;;;;;5074334;28;20024;-74
2022/04/04 07:51:57;;;;;;;15.32;9.55;;;;;;;;;;5075093;28;20048;-73
2022/04/04 07:54:23;;;;;;;13.88;8.98;;;;;;;;;;5075491;28;20081;-73
2022/04/04 07:56:53;;;;;;;14.18;8.35;;;;;;;;;;5074350;28;20542;-73
2022/04/04 07:59:19;;;;;;;11.25;8.55;;;;;;;;;;5074648;28;20024;-73
2022/04/04 08:01:45;;;;;;;14.13;9.13;;;;;;;;;;5076058;28;20539;-73
2022/04/04 08:04:12;;;;;;;12.70;8.73;;;;;;;;;;5075302;28;20078;-73
2022/04/04 08:06:38;;;;;;;13.48;9.63;;;;;;;;;;5076001;28;20426;-73
2022/04/04 08:09:04;;;;;;;14.05;9.23;;;;;;;;;;5074210;28;20066;-73
2022/04/04 08:11:29;;;;;;;11.75;8.48;;;;;;;;;;5075619;28;20033;-73
2022/04/04 08:13:56;;;;;;;11.45;8.77;;;;;;;;;;5073137;28;20115;-73
2022/04/04 08:16:25;;;;;;;11.10;8.10;;;;;;;;;;5075017;28;20464;-73
2022/04/04 08:18:51;;;;;;;11.82;8.90;;;;;;;;;;5073682;28;20086;-73
2022/04/04 08:21:17;;;;;;;12.68;8.90;;;;;;;;;;5073284;28;20433;-74
2022/04/04 08:23:43;;;;;;;14.30;8.55;;;;;;;;;;5075860;28;20028;-73
2022/04/04 08:26:09;;;;;;;11.45;8.90;;;;;;;;;;5071144;28;20127;-74
2022/04/04 08:28:35;;;;;;;10.32;8.10;;;;;;;;;;5072755;28;20441;-73
2022/04/04 08:31:01;;;;;;;16.17;9.30;;;;;;;;;;5077086;28;20024;-73
2022/04/04 08:33:27;;;;;;;15.73;8.68;;;;;;;;;;5089339;28;20028;-73
2022/04/04 08:35:53;;;;;;;11.85;8.20;;;;;;;;;;5093494;28;20237;-74
2022/04/04 08:38:20;;;;;;;12.05;8.48;;;;;;;;;;5084258;28;20024;-74
2022/04/04 08:40:48;;;;;;;13.82;8.68;;;;;;;;;;5083148;28;20058;-74
2022/04/04 08:43:16;;;;;;;11.18;7.43;;;;;;;;;;5076348;28;20031;-74
2022/04/04 08:45:42;;;;;;;19.30;7.97;;;;;;;;;;5077759;28;20081;-74
2022/04/04 08:48:09;;;;;;;15.30;7.57;;;;;;;;;;5085628;28;20032;-74
2022/04/04 08:50:36;;;;;;;10.27;7.82;;;;;;;;;;5080938;28;20028;-80
2022/04/04 08:53:02;;;;;;;12.52;8.38;;;;;;;;;;5084237;28;20024;-79
2022/04/04 08:55:28;;;;;;;12.30;8.48;;;;;;;;;;5076242;28;20016;-77
2022/04/04 08:57:56;;;;;;;11.30;7.95;;;;;;;;;;5082397;28;20452;-79
2022/04/04 09:00:21;;;;;;;11.02;7.20;;;;;;;;;;5077529;28;20059;-79
2022/04/04 09:03:02;;;;;;;11.32;7.60;;;;;;;;;;5086091;28;20062;-79
2022/04/04 09:05:29;;;;;;;13.05;7.45;;;;;;;;;;5085578;28;20394;-74
2022/04/04 09:08:05;;;;;;;15.50;8.02;;;;;;;;;;5090715;28;20039;-75
2022/04/04 09:10:40;;;;;;;10.73;7.50;;;;;;;;;;5082387;28;20032;-74
2022/04/04 09:13:10;;;;;;;9.45;7.22;;;;;;;;;;5089003;28;20067;-72
2022/04/04 09:15:55;;;;;;;10.35;7.35;;;;;;;;;;5082683;28;20041;-75
2022/04/04 09:18:41;;;;;;;18.00;7.70;;;;;;;;;;5074077;28;20099;-73
2022/04/04 09:21:12;;;;;;;13.05;7.57;;;;;;;;;;5083767;28;20039;-74
2022/04/04 09:23:45;;;;;;;16.95;7.05;;;;;;;;;;5075104;28;20029;-74
2022/04/04 09:26:33;;;;;;;11.60;7.85;;;;;;;;;;5078734;28;20033;-74
2022/04/04 09:29:00;;;;;;;9.13;7.03;;;;;;;;;;5090567;28;20099;-73
2022/04/04 09:31:27;;;;;;;10.15;6.50;;;;;;;;;;5089900;28;20111;-75
2022/04/04 09:33:57;;;;;;;11.23;7.25;;;;;;;;;;5086967;28;20039;-75
2022/04/04 09:36:23;;;;;;;19.25;7.82;;;;;;;;;;5078892;28;20039;-72
2022/04/04 09:39:00;;;;;;;9.18;7.10;;;;;;;;;;5088685;28;20103;-72
2022/04/04 09:41:27;;;;;;;12.68;7.40;;;;;;;;;;5082129;28;20439;-73
2022/04/04 09:43:54;;;;;;;15.93;7.55;;;;;;;;;;5075022;28;20107;-74
2022/04/04 09:46:21;;;;;;;11.45;7.90;;;;;;;;;;5082169;28;20487;-74
2022/04/04 09:49:06;;;;;;;11.40;7.70;;;;;;;;;;5086795;28;20475;-74
2022/04/04 09:51:39;;;;;;;12.15;7.88;;;;;;;;;;5086302;28;20028;-74
2022/04/04 09:54:06;;;;;;;14.85;8.35;;;;;;;;;;5073795;28;20078;-73
2022/04/04 09:56:33;;;;;;;9.60;7.90;;;;;;;;;;5082083;28;20439;-74
2022/04/04 09:59:02;;;;;;;17.27;7.97;;;;;;;;;;5082391;28;20017;-72
2022/04/04 10:01:30;;;;;;;13.07;8.65;;;;;;;;;;5086515;28;20062;-74
2022/04/04 10:03:56;;;;;;;12.57;8.40;;;;;;;;;;5087638;28;20435;-75
2022/04/04 10:06:24;;;;;;;12.93;8.85;;;;;;;;;;5083014;28;20493;-76
2022/04/04 10:08:54;;;;;;;17.35;10.05;;;;;;;;;;5079134;28;20380;-74
2022/04/04 10:11:21;;;;;;;10.77;8.50;;;;;;;;;;5071972;28;20123;-73
2022/04/04 10:13:47;;;;;;;10.52;8.38;;;;;;;;;;5084093;28;20097;-73
2022/04/04 10:16:13;;;;;;;12.82;8.65;;;;;;;;;;5090462;28;20030;-73
2022/04/04 10:18:42;;;;;;;14.80;8.35;;;;;;;;;;5086316;28;20360;-76
2022/04/04 10:21:08;;;;;;;15.82;8.35;;;;;;;;;;5088859;28;20093;-70
2022/04/04 10:23:36;;;;;;;11.65;8.18;;;;;;;;;;5076458;28;20036;-71
2022/04/04 10:26:03;;;;;;;10.38;7.95;;;;;;;;;;5088929;28;20047;-71
2022/04/04 10:28:29;;;;;;;12.98;8.75;;;;;;;;;;5081484;28;20080;-72
2022/04/04 10:30:59;;;;;;;10.50;7.63;;;;;;;;;;5088395;28;20038;-72
2022/04/04 10:33:25;;;;;;;13.02;8.07;;;;;;;;;;5083980;28;20518;-72
2022/04/04 10:36:05;;;;;;;13.00;7.78;;;;;;;;;;5083243;28;20201;-73
2022/04/04 10:38:32;;;;;;;15.23;8.10;;;;;;;;;;5091253;28;20030;-72
2022/04/04 10:41:02;;;;;;;17.38;7.90;;;;;;;;;;5083304;28;20039;-72
2022/04/04 10:43:36;;;;;;;11.48;8.40;;;;;;;;;;5085683;28;20039;-72
2022/04/04 10:46:05;;;;;;;20.40;8.13;;;;;;;;;;5083064;28;20036;-71
2022/04/04 10:48:31;;;;;;;11.70;8.02;;;;;;;;;;5073595;28;20514;-72
2022/04/04 10:51:04;;;;;;;20.38;8.60;;;;;;;;;;5087274;28;20116;-71
2022/04/04 10:53:37;;;;;;;10.43;8.30;;;;;;;;;;5076722;28;20025;-71
2022/04/04 10:56:05;;;;;;;12.88;8.25;;;;;;;;;;5076004;28;20039;-71
2022/04/04 10:58:31;;;;;;;13.75;7.32;;;;;;;;;;5077434;28;20111;-71
2022/04/04 11:00:58;;;;;;;10.43;6.93;;;;;;;;;;5088452;28;20368;-72
2022/04/04 11:03:27;;;;;;;13.57;8.07;;;;;;;;;;5084754;28;20031;-71
2022/04/04 11:09:03;;;;;;;14.30;6.80;;;;;;;;;;5086857;28;20071;-71
2022/04/04 11:11:44;;;;;;;11.32;6.70;;;;;;;;;;5089255;28;20074;-72
2022/04/04 11:14:11;;;;;;;25.48;6.47;;;;;;;;;;5085397;28;20048;-71
2022/04/04 11:16:56;;;;;;;15.52;6.32;;;;;;;;;;5075468;28;20116;-71
2022/04/04 11:19:28;;;;;;;11.65;5.90;;;;;;;;;;5088748;28;20051;-71
2022/04/04 11:21:54;;;;;;;23.55;6.72;;;;;;;;;;5088780;28;20077;-71
2022/04/04 11:24:20;;;;;;;19.52;5.82;;;;;;;;;;5088983;28;20035;-72
2022/04/04 11:26:50;;;;;;;14.55;6.20;;;;;;;;;;5087730;28;20035;-73
2022/04/04 11:29:21;;;;;;;12.38;6.57;;;;;;;;;;5086154;28;20032;-73
2022/04/04 11:31:51;;;;;;;14.27;5.90;;;;;;;;;;5079482;28;20036;-71
2022/04/04 11:34:17;;;;;;;17.98;5.53;;;;;;;;;;5078696;28;20032;-74
2022/04/04 11:36:43;;;;;;;15.35;6.55;;;;;;;;;;5078453;28;20097;-74
2022/04/04 11:39:10;;;;;;;36.67;6.20;;;;;;;;;;5075347;28;20417;-74
2022/04/04 11:41:36;;;;;;;23.67;6.38;;;;;;;;;;5080239;28;20025;-74
2022/04/04 11:44:06;;;;;;;33.28;6.18;;;;;;;;;;5070296;28;20033;-75
2022/04/04 11:46:35;;;;;;;11.95;5.88;;;;;;;;;;5075922;28;20052;-77
2022/04/04 11:49:03;;;;;;;10.93;6.00;;;;;;;;;;5075835;28;20063;-73
2022/04/04 11:51:32;;;;;;;13.38;4.85;;;;;;;;;;5076279;28;20086;-74
2022/04/04 11:54:09;;;;;;;14.05;4.88;;;;;;;;;;5077965;28;20467;-73
2022/04/04 11:56:35;;;;;;;19.38;4.75;;;;;;;;;;5076747;28;20108;-74
2022/04/04 11:59:04;;;;;;;12.88;4.93;;;;;;;;;;5083851;28;20111;-73
2022/04/04 12:01:33;;;;;;;13.52;4.05;;;;;;;;;;5086215;28;20028;-74
2022/04/04 12:04:00;;;;;;;18.08;5.32;;;;;;;;;;5081877;28;20024;-73
2022/04/04 12:06:28;;;;;;;30.38;4.68;;;;;;;;;;5080625;28;20025;-73
2022/04/04 12:08:57;;;;;;;45.58;5.10;;;;;;;;;;5075172;28;20399;-73
2022/04/04 12:11:28;;;;;;;35.63;4.93;;;;;;;;;;5087740;28;20036;-73
2022/04/04 12:13:56;;;;;;;28.20;4.95;;;;;;;;;;5075423;28;20174;-73
2022/04/04 12:16:22;;;;;;;37.65;4.93;;;;;;;;;;5086657;28;20020;-73
2022/04/04 12:18:57;;;;;;;14.90;4.88;;;;;;;;;;5079310;28;20533;-74
2022/04/04 12:21:23;;;;;;;21.23;5.13;;;;;;;;;;5079545;28;20695;-72
2022/04/04 12:26:34;;;;;;;12.73;5.35;;;;;;;;;;5086824;28;20043;-73
2022/04/04 12:29:03;;;;;;;15.07;4.70;;;;;;;;;;5077788;28;20047;-73
2022/04/04 12:31:29;;;;;;;9.57;4.65;;;;;;;;;;5076728;28;20024;-74
2022/04/04 12:34:11;;;;;;;15.18;4.50;;;;;;;;;;5073931;28;20029;-73
2022/04/04 12:36:39;;;;;;;11.55;4.22;;;;;;;;;;5079826;28;20051;-73
2022/04/04 12:39:08;;;;;;;13.50;4.78;;;;;;;;;;5077981;28;20040;-73
2022/04/04 12:41:42;;;;;;;9.60;5.10;;;;;;;;;;5080331;28;20551;-73
2022/04/04 12:44:08;;;;;;;22.05;7.85;;;;;;;;;;5085430;28;20070;-73
2022/04/04 12:46:35;;;;;;;13.68;5.32;;;;;;;;;;5085951;28;20673;-75
2022/04/04 12:49:09;;;;;;;8.98;5.53;;;;;;;;;;5089416;28;20031;-74
2022/04/04 12:51:35;;;;;;;13.10;6.40;;;;;;;;;;5086075;28;20028;-74
2022/04/04 12:54:01;;;;;;;9.73;5.93;;;;;;;;;;5087135;28;20038;-73
2022/04/04 12:56:28;;;;;;;9.27;6.00;;;;;;;;;;5080682;28;20086;-74
2022/04/04 12:59:04;;;;;;;10.52;6.60;;;;;;;;;;5077551;28;20012;-73
2022/04/04 13:01:30;;;;;;;16.23;7.00;;;;;;;;;;5087711;28;20398;-74
2022/04/04 13:03:56;;;;;;;8.77;6.60;;;;;;;;;;5085247;28;20035;-75
2022/04/04 13:06:22;;;;;;;14.32;8.40;;;;;;;;;;5088971;28;20062;-74
2022/04/04 13:08:59;;;;;;;17.45;8.57;;;;;;;;;;5084877;28;20413;-75
2022/04/04 13:11:26;;;;;;;15.32;9.20;;;;;;;;;;5075449;28;20020;-74
2022/04/04 13:14:05;;;;;;;15.23;9.82;;;;;;;;;;5090067;28;20052;-75
2022/04/04 13:16:36;;;;;;;15.63;7.95;;;;;;;;;;5091638;28;20016;-75
2022/04/04 13:19:02;;;;;;;17.10;9.05;;;;;;;;;;5084475;28;20046;-75
2022/04/04 13:21:28;;;;;;;12.40;9.10;;;;;;;;;;5082908;28;20056;-75
2022/04/04 13:23:54;;;;;;;15.05;8.30;;;;;;;;;;5082632;28;20055;-74
2022/04/04 13:26:20;;;;;;;16.02;9.35;;;;;;;;;;5086824;28;20107;-75
2022/04/04 13:28:46;;;;;;;12.88;9.05;;;;;;;;;;5077704;28;20549;-74
2022/04/04 13:31:12;;;;;;;15.35;9.25;;;;;;;;;;5082748;28;20105;-74
2022/04/04 13:33:38;;;;;;;16.65;9.18;;;;;;;;;;5081569;28;20081;-75
2022/04/04 13:36:05;;;;;;;13.50;9.30;;;;;;;;;;5086944;28;21512;-74
2022/04/04 13:38:31;;;;;;;16.00;9.60;;;;;;;;;;5086630;28;20081;-75
2022/04/04 13:40:57;;;;;;;16.33;10.13;;;;;;;;;;5077960;28;20387;-74
2022/04/04 13:43:32;;;;;;;14.32;10.00;;;;;;;;;;5091123;28;20028;-76
2022/04/04 13:46:03;;;;;;;18.70;10.55;;;;;;;;;;5089548;28;20017;-75
2022/04/04 13:48:29;;;;;;;19.13;11.75;;;;;;;;;;5078030;28;20062;-74
2022/04/04 13:50:55;;;;;;;26.15;12.80;;;;;;;;;;5084283;28;20046;-73
2022/04/04 13:53:21;;;;;;;21.55;13.18;;;;;;;;;;5085024;28;20024;-74
2022/04/04 13:55:46;;;;;;;17.73;12.48;;;;;;;;;;5090818;28;20020;-74
2022/04/04 13:58:13;;;;;;;22.27;13.07;;;;;;;;;;5090417;28;20384;-74
2022/04/04 14:00:39;;;;;;;20.77;12.48;;;;;;;;;;5077934;28;20024;-73
2022/04/04 14:03:05;;;;;;;20.85;12.88;;;;;;;;;;5075955;28;20028;-74
2022/04/04 14:05:31;;;;;;;23.55;13.07;;;;;;;;;;5078963;22;20041;-74
2022/04/04 14:07:57;;;;;;;19.83;12.70;;;;;;;;;;5050900;28;20540;-74
2022/04/04 14:10:23;;;;;;;19.65;12.95;;;;;;;;;;5062670;28;20032;-73
2022/04/04 14:12:49;;;;;;;17.63;12.90;;;;;;;;;;5059405;28;21429;-75
2022/04/04 14:15:17;;;;;;;21.77;14.32;;;;;;;;;;5058543;28;20037;-74
2022/04/04 14:17:43;;;;;;;22.15;14.77;;;;;;;;;;5057707;28;20032;-74
2022/04/04 14:20:09;;;;;;;20.85;14.38;;;;;;;;;;5057264;28;20033;-75
2022/04/04 14:22:35;;;;;;;23.65;14.30;;;;;;;;;;5057727;28;20028;-75
2022/04/04 14:25:01;;;;;;;20.63;13.70;;;;;;;;;;5058881;28;20118;-75
2022/04/04 14:27:28;;;;;;;22.83;14.52;;;;;;;;;;5058729;28;20064;-75
2022/04/04 14:29:54;;;;;;;20.92;14.13;;;;;;;;;;5058477;28;20430;-76
2022/04/04 14:32:21;;;;;;;19.98;13.93;;;;;;;;;;5057904;28;20021;-75
2022/04/04 14:34:47;;;;;;;23.15;14.65;;;;;;;;;;5057757;28;20060;-74
2022/04/04 14:37:13;;;;;;;23.20;14.68;;;;;;;;;;5058976;28;20063;-74
2022/04/04 14:39:39;;;;;;;22.90;14.60;;;;;;;;;;5059177;28;20016;-75
2022/04/04 14:42:10;;;;;;;24.10;15.23;;;;;;;;;;5056521;28;20047;-76